createdAt,value
2023-05-11T00:01:43.834Z,98599.41
2023-05-11T00:04:10.334Z,98598.84
2023-05-11T00:06:36.929Z,98595.34
2023-05-11T00:09:11.118Z,98595.41
2023-05-11T00:11:37.970Z,98595.53
2023-05-11T00:14:07.710Z,98595.59
2023-05-11T00:16:34.491Z,98598.16
2023-05-11T00:19:01.496Z,98597.28
2023-05-11T00:21:30.581Z,98592.69
2023-05-11T00:23:57.070Z,98603.88
2023-05-11T00:26:24.032Z,98600.25
2023-05-11T00:28:52.918Z,98584.31
2023-05-11T00:31:19.481Z,98604.72
2023-05-11T00:33:49.415Z,98592.53
2023-05-11T00:36:15.937Z,98593.78
2023-05-11T00:38:45.496Z,98593.78
2023-05-11T00:41:18.631Z,98595.66
2023-05-11T00:43:45.067Z,98589.50
2023-05-11T00:46:12.173Z,98590.41
2023-05-11T00:48:38.884Z,98593.00
2023-05-11T00:51:06.909Z,98593.94
2023-05-11T00:53:33.388Z,98594.03
2023-05-11T00:56:00.390Z,98589.72
2023-05-11T00:58:27.050Z,98587.16
2023-05-11T01:00:53.530Z,98589.69
2023-05-11T01:03:20.087Z,98590.38
2023-05-11T01:05:53.120Z,98599.25
2023-05-11T01:08:40.156Z,98592.34
2023-05-11T01:11:19.329Z,98592.47
2023-05-11T01:13:55.837Z,98597.78
2023-05-11T01:16:26.211Z,98594.22
2023-05-11T01:19:12.684Z,98588.75
2023-05-11T01:21:40.501Z,98593.88
2023-05-11T01:24:22.599Z,98596.38
2023-05-11T01:27:19.643Z,98595.72
2023-05-11T01:30:18.968Z,98595.88
2023-05-11T01:32:46.482Z,98595.97
2023-05-11T01:35:22.031Z,98597.72
2023-05-11T01:37:53.020Z,98588.97
2023-05-11T01:40:24.843Z,98593.50
2023-05-11T01:43:02.189Z,98589.91
2023-05-11T01:45:31.582Z,98595.16
2023-05-11T01:48:02.247Z,98599.28
2023-05-11T01:50:29.746Z,98597.31
2023-05-11T01:52:56.677Z,98599.13
2023-05-11T01:55:23.906Z,98595.81
2023-05-11T01:57:53.407Z,98603.94
2023-05-11T02:00:22.495Z,98604.00
2023-05-11T02:02:49.766Z,98597.75
2023-05-11T02:05:20.794Z,98597.84
2023-05-11T02:07:50.931Z,98597.81
2023-05-11T02:10:19.057Z,98598.66
2023-05-11T02:12:47.768Z,98601.38
2023-05-11T02:15:16.291Z,98604.84
2023-05-11T02:17:43.661Z,98603.19
2023-05-11T02:20:11.949Z,98597.91
2023-05-11T02:22:39.572Z,98604.06
2023-05-11T02:25:08.173Z,98601.38
2023-05-11T02:27:35.964Z,98605.72
2023-05-11T02:30:04.177Z,98597.66
2023-05-11T02:32:33.166Z,98601.19
2023-05-11T02:35:10.010Z,98611.75
2023-05-11T02:37:43.248Z,98599.25
2023-05-11T02:40:17.132Z,98607.28
2023-05-11T02:42:46.893Z,98603.00
2023-05-11T02:45:17.083Z,98605.75
2023-05-11T02:47:47.475Z,98603.13
2023-05-11T02:50:15.091Z,98605.88
2023-05-11T02:52:45.775Z,98604.97
2023-05-11T02:55:15.281Z,98606.63
2023-05-11T02:57:42.624Z,98606.59
2023-05-11T03:00:10.897Z,98604.75
2023-05-11T03:02:37.677Z,98608.34
2023-05-11T03:05:04.816Z,98612.00
2023-05-11T03:07:33.070Z,98610.38
2023-05-11T03:10:00.762Z,98608.56
2023-05-11T03:12:31.516Z,98611.91
2023-05-11T03:15:00.280Z,98619.06
2023-05-11T03:17:30.514Z,98603.25
2023-05-11T03:19:58.620Z,98614.66
2023-05-11T03:22:26.556Z,98611.00
2023-05-11T03:24:53.725Z,98612.72
2023-05-11T03:27:20.694Z,98614.38
2023-05-11T03:29:49.235Z,98608.22
2023-05-11T03:32:15.823Z,98608.16
2023-05-11T03:34:42.414Z,98611.53
2023-05-11T03:37:12.532Z,98611.41
2023-05-11T03:39:41.293Z,98614.22
2023-05-11T03:42:08.609Z,98613.56
2023-05-11T03:44:36.256Z,98607.50
2023-05-11T03:47:03.987Z,98617.25
2023-05-11T03:49:30.998Z,98611.94
2023-05-11T03:51:57.795Z,98604.91
2023-05-11T03:54:24.511Z,98610.38
2023-05-11T03:56:52.106Z,98599.66
2023-05-11T03:59:18.938Z,98602.19
2023-05-11T04:01:45.997Z,98603.13
2023-05-11T04:04:12.661Z,98600.41
2023-05-11T04:06:39.158Z,98602.91
2023-05-11T04:09:05.672Z,98603.72
2023-05-11T04:11:37.014Z,98601.00
2023-05-11T04:14:03.964Z,98597.31
2023-05-11T04:16:30.568Z,98598.22
2023-05-11T04:18:57.158Z,98599.13
2023-05-11T04:21:23.713Z,98596.56
2023-05-11T04:23:50.248Z,98602.84
2023-05-11T04:26:16.690Z,98606.31
2023-05-11T04:28:43.191Z,98601.75
2023-05-11T04:31:10.496Z,98599.97
2023-05-11T04:33:38.257Z,98604.41
2023-05-11T04:36:05.234Z,98599.03
2023-05-11T04:38:31.745Z,98604.34
2023-05-11T04:40:58.195Z,98601.72
2023-05-11T04:43:24.895Z,98606.09
2023-05-11T04:45:51.545Z,98607.84
2023-05-11T04:48:20.517Z,98614.03
2023-05-11T04:50:47.628Z,98606.88
2023-05-11T04:53:14.338Z,98609.56
2023-05-11T04:55:40.824Z,98609.72
2023-05-11T04:58:07.315Z,98617.81
2023-05-11T05:00:33.866Z,98615.06
2023-05-11T05:03:00.492Z,98612.25
2023-05-11T05:05:30.260Z,98615.88
2023-05-11T05:07:56.912Z,98608.94
2023-05-11T05:10:23.352Z,98617.81
2023-05-11T05:12:49.817Z,98610.75
2023-05-11T05:15:20.568Z,98609.84
2023-05-11T05:17:50.304Z,98611.41
2023-05-11T05:20:24.164Z,98609.44
2023-05-11T05:22:50.724Z,98616.63
2023-05-11T05:25:17.266Z,98613.22
2023-05-11T05:27:43.757Z,98620.25
2023-05-11T05:30:10.607Z,98619.22
2023-05-11T05:32:37.052Z,98619.97
2023-05-11T05:35:04.071Z,98625.28
2023-05-11T05:37:30.613Z,98623.53
2023-05-11T05:39:58.300Z,98628.81
2023-05-11T05:42:27.577Z,98627.78
2023-05-11T05:44:54.111Z,98622.44
2023-05-11T05:47:20.691Z,98633.91
2023-05-11T05:49:47.261Z,98628.72
2023-05-11T05:52:13.769Z,98632.38
2023-05-11T05:54:40.344Z,98638.78
2023-05-11T05:57:06.817Z,98637.94
2023-05-11T05:59:33.332Z,98635.22
2023-05-11T06:01:59.789Z,98636.84
2023-05-11T06:04:26.332Z,98638.59
2023-05-11T06:06:52.899Z,98640.22
2023-05-11T06:09:19.400Z,98642.69
2023-05-11T06:11:45.900Z,98647.00
2023-05-11T06:14:12.407Z,98641.66
2023-05-11T06:16:38.965Z,98645.34
2023-05-11T06:19:08.985Z,98647.22
2023-05-11T06:21:35.661Z,98650.69
2023-05-11T06:24:02.383Z,98644.38
2023-05-11T06:26:29.527Z,98646.00
2023-05-11T06:28:56.030Z,98642.66
2023-05-11T06:31:24.257Z,98640.91
2023-05-11T06:33:50.875Z,98641.81
2023-05-11T06:36:17.363Z,98642.81
2023-05-11T06:38:43.824Z,98646.34
2023-05-11T06:41:11.520Z,98643.66
2023-05-11T06:43:38.506Z,98640.00
2023-05-11T06:46:05.398Z,98640.94
2023-05-11T06:48:31.958Z,98647.09
2023-05-11T06:50:58.705Z,98642.63
2023-05-11T06:53:25.247Z,98640.88
2023-05-11T06:55:51.749Z,98637.19
2023-05-11T06:58:20.647Z,98650.44
2023-05-11T07:00:47.457Z,98637.09
2023-05-11T07:03:17.029Z,98637.03
2023-05-11T07:05:43.764Z,98636.91
2023-05-11T07:08:10.241Z,98630.66
2023-05-11T07:10:36.756Z,98630.59
2023-05-11T07:13:05.226Z,98642.22
2023-05-11T07:15:31.729Z,98643.97
2023-05-11T07:17:58.390Z,98638.72
2023-05-11T07:20:25.026Z,98638.88
2023-05-11T07:22:51.605Z,98644.25
2023-05-11T07:25:18.084Z,98640.69
2023-05-11T07:27:44.557Z,98642.47
2023-05-11T07:30:11.660Z,98647.78
2023-05-11T07:32:38.730Z,98645.06
2023-05-11T07:35:05.582Z,98645.06
2023-05-11T07:37:33.560Z,98645.94
2023-05-11T07:40:00.109Z,98642.34
2023-05-11T07:42:27.442Z,98649.41
2023-05-11T07:44:53.873Z,98647.56
2023-05-11T07:47:21.014Z,98644.03
2023-05-11T07:49:47.735Z,98649.34
2023-05-11T07:52:14.731Z,98645.03
2023-05-11T07:54:41.310Z,98648.63
2023-05-11T07:57:08.464Z,98647.72
2023-05-11T07:59:35.312Z,98656.56
2023-05-11T08:02:01.876Z,98652.97
2023-05-11T08:04:28.349Z,98647.81
2023-05-11T08:06:54.841Z,98658.47
2023-05-11T08:09:22.395Z,98658.53
2023-05-11T08:11:49.740Z,98647.03
2023-05-11T08:14:17.141Z,98654.03
2023-05-11T08:16:43.794Z,98658.38
2023-05-11T08:19:11.657Z,98656.53
2023-05-11T08:21:38.555Z,98658.34
2023-05-11T08:24:05.368Z,98658.28
2023-05-11T08:26:33.550Z,98656.53
2023-05-11T08:29:00.310Z,98663.50
2023-05-11T08:31:26.908Z,98657.16
2023-05-11T08:33:53.522Z,98660.81
2023-05-11T08:36:20.362Z,98656.31
2023-05-11T08:38:46.856Z,98660.78
2023-05-11T08:41:13.523Z,98660.00
2023-05-11T08:43:40.993Z,98656.44
2023-05-11T08:46:09.147Z,98664.31
2023-05-11T08:48:36.319Z,98655.38
2023-05-11T08:51:06.224Z,98658.06
2023-05-11T08:53:33.265Z,98662.59
2023-05-11T08:56:01.316Z,98656.28
2023-05-11T08:58:29.540Z,98654.56
2023-05-11T09:00:57.657Z,98659.78
2023-05-11T09:03:25.122Z,98665.94
2023-05-11T09:05:52.997Z,98668.59
2023-05-11T09:08:20.531Z,98665.94
2023-05-11T09:10:48.942Z,98659.75
2023-05-11T09:13:16.026Z,98661.59
2023-05-11T09:15:42.624Z,98668.59
2023-05-11T09:18:09.223Z,98657.03
2023-05-11T09:20:35.775Z,98660.56
2023-05-11T09:23:02.559Z,98656.22
2023-05-11T09:25:35.730Z,98651.00
2023-05-11T09:28:02.308Z,98657.06
2023-05-11T09:30:28.852Z,98657.13
2023-05-11T09:33:00.235Z,98657.13
2023-05-11T09:35:28.730Z,98659.81
2023-05-11T09:38:06.542Z,98651.91
2023-05-11T09:40:43.510Z,98652.69
2023-05-11T09:43:17.211Z,98649.97
2023-05-11T09:45:46.351Z,98655.25
2023-05-11T09:48:19.142Z,98658.03
2023-05-11T09:50:51.079Z,98662.56
2023-05-11T09:53:17.931Z,98661.84
2023-05-11T09:55:55.600Z,98662.00
2023-05-11T09:58:22.180Z,98666.34
2023-05-11T10:00:51.228Z,98658.38
2023-05-11T10:03:18.091Z,98661.03
2023-05-11T10:05:58.213Z,98662.78
2023-05-11T10:08:34.192Z,98663.88
2023-05-11T10:11:02.656Z,98657.66
2023-05-11T10:13:30.760Z,98659.34
2023-05-11T10:15:59.174Z,98653.25
2023-05-11T10:18:26.502Z,98652.31
2023-05-11T10:20:57.893Z,98651.38
2023-05-11T10:23:25.730Z,98653.06
2023-05-11T10:25:53.624Z,98647.81
2023-05-11T10:28:23.072Z,98648.75
2023-05-11T10:30:49.791Z,98645.06
2023-05-11T10:33:17.155Z,98642.28
2023-05-11T10:35:45.682Z,98642.19
2023-05-11T10:38:13.454Z,98637.78
2023-05-11T10:40:43.479Z,98643.06
2023-05-11T10:43:44.220Z,98641.34
2023-05-11T10:46:18.094Z,98654.75
2023-05-11T10:48:59.578Z,98644.94
2023-05-11T10:51:44.341Z,98635.22
2023-05-11T10:54:20.174Z,98644.88
2023-05-11T10:57:03.761Z,98642.16
2023-05-11T10:59:43.646Z,98642.06
2023-05-11T11:02:10.843Z,98645.47
2023-05-11T11:04:51.655Z,98633.91
2023-05-11T11:07:19.653Z,98647.16
2023-05-11T11:09:57.708Z,98639.06
2023-05-11T11:12:27.364Z,98638.75
2023-05-11T11:15:06.204Z,98635.00
2023-05-11T11:17:35.500Z,98632.91
2023-05-11T11:20:04.490Z,98632.13
2023-05-11T11:22:38.491Z,98633.81
2023-05-11T11:25:06.686Z,98629.94
2023-05-11T11:27:45.407Z,98629.78
2023-05-11T11:30:15.604Z,98627.75
2023-05-11T11:32:44.006Z,98629.22
2023-05-11T11:35:40.112Z,98635.22
2023-05-11T11:38:07.513Z,98632.22
2023-05-11T11:40:49.448Z,98636.50
2023-05-11T11:43:19.166Z,98634.56
2023-05-11T11:45:59.600Z,98637.47
2023-05-11T11:48:31.386Z,98627.31
2023-05-11T11:51:02.431Z,98632.13
2023-05-11T11:53:37.983Z,98626.75
2023-05-11T11:56:06.081Z,98629.75
2023-05-11T11:58:41.839Z,98629.16
2023-05-11T12:01:10.090Z,98629.19
2023-05-11T12:03:37.282Z,98636.50
2023-05-11T12:06:06.285Z,98633.03
2023-05-11T12:08:32.771Z,98627.03
2023-05-11T12:11:00.332Z,98625.41
2023-05-11T12:13:27.515Z,98630.69
2023-05-11T12:16:16.988Z,98621.50
2023-05-11T12:18:53.557Z,98638.53
2023-05-11T12:21:21.271Z,98633.19
2023-05-11T12:24:02.490Z,98636.03
2023-05-11T12:26:30.751Z,98629.88
2023-05-11T12:29:12.726Z,98628.91
2023-05-11T12:31:43.673Z,98632.28
2023-05-11T12:34:17.992Z,98630.38
2023-05-11T12:36:52.115Z,98632.19
2023-05-11T12:39:28.143Z,98624.09
2023-05-11T12:41:56.518Z,98618.44
2023-05-11T12:44:26.520Z,98626.25
2023-05-11T12:46:53.918Z,98620.03
2023-05-11T12:49:26.333Z,98614.41
2023-05-11T12:51:59.362Z,98615.97
2023-05-11T12:54:31.793Z,98616.25
2023-05-11T12:56:59.008Z,98619.66
2023-05-11T12:59:40.454Z,98621.31
2023-05-11T13:02:14.869Z,98615.22
2023-05-11T13:04:42.726Z,98621.72
2023-05-11T13:07:10.038Z,98610.44
2023-05-11T13:09:37.297Z,98615.22
2023-05-11T13:12:17.973Z,98625.06
2023-05-11T13:14:49.567Z,98610.88
2023-05-11T13:17:33.778Z,98613.47
2023-05-11T13:20:27.171Z,98613.25
2023-05-11T13:23:05.619Z,98609.06
2023-05-11T13:25:33.045Z,98609.00
2023-05-11T13:27:59.547Z,98602.75
2023-05-11T13:30:26.111Z,98607.06
2023-05-11T13:32:52.720Z,98606.19
2023-05-11T13:35:19.468Z,98607.91
2023-05-11T13:37:46.982Z,98600.81
2023-05-11T13:40:13.961Z,98602.47
2023-05-11T13:42:41.591Z,98597.19
2023-05-11T13:45:08.600Z,98591.66
2023-05-11T13:47:35.946Z,98591.41
2023-05-11T13:50:02.789Z,98592.16
2023-05-11T13:52:29.327Z,98585.84
2023-05-11T13:54:56.825Z,98591.16
2023-05-11T13:57:23.588Z,98584.91
2023-05-11T13:59:50.560Z,98586.56
2023-05-11T14:02:17.062Z,98577.50
2023-05-11T14:04:43.714Z,98583.50
2023-05-11T14:07:10.235Z,98576.25
2023-05-11T14:09:37.146Z,98580.31
2023-05-11T14:12:04.016Z,98579.75
2023-05-11T14:14:30.554Z,98578.00
2023-05-11T14:17:00.332Z,98570.16
2023-05-11T14:19:27.275Z,98567.03
2023-05-11T14:21:53.865Z,98570.56
2023-05-11T14:24:20.662Z,98566.97
2023-05-11T14:26:47.328Z,98570.00
2023-05-11T14:29:13.793Z,98573.28
2023-05-11T14:31:41.161Z,98568.84
2023-05-11T14:34:07.865Z,98571.25
2023-05-11T14:36:34.432Z,98570.19
2023-05-11T14:39:00.976Z,98568.72
2023-05-11T14:41:27.485Z,98572.97
2023-05-11T14:43:53.950Z,98575.88
2023-05-11T14:46:21.611Z,98575.66
2023-05-11T14:48:48.395Z,98576.72
2023-05-11T14:51:14.957Z,98573.75
2023-05-11T14:53:41.418Z,98575.19
2023-05-11T14:56:07.910Z,98569.06
2023-05-11T14:58:35.008Z,98566.06
2023-05-11T15:01:01.529Z,98555.88
2023-05-11T15:03:28.143Z,98565.84
2023-05-11T15:05:54.670Z,98555.63
2023-05-11T15:08:29.517Z,98563.53
2023-05-11T15:10:59.138Z,98558.13
2023-05-11T15:13:25.623Z,98569.00
2023-05-11T15:15:52.185Z,98569.56
2023-05-11T15:18:19.030Z,98568.13
2023-05-11T15:20:46.239Z,98577.19
2023-05-11T15:23:16.957Z,98573.78
2023-05-11T15:25:44.706Z,98576.72
2023-05-11T15:28:11.584Z,98637.44
2023-05-11T15:30:38.420Z,98654.59
2023-05-11T15:33:04.974Z,98639.31
2023-05-11T15:35:31.729Z,98624.53
2023-05-11T15:37:58.195Z,98620.59
2023-05-11T15:40:24.765Z,98630.63
2023-05-11T15:42:51.261Z,98630.66
2023-05-11T15:45:18.291Z,98615.53
2023-05-11T15:47:45.007Z,98612.78
2023-05-11T15:50:11.552Z,98606.63
2023-05-11T15:52:38.121Z,98610.13
2023-05-11T15:55:05.171Z,98597.59
2023-05-11T15:57:32.081Z,98595.78
2023-05-11T15:59:58.594Z,98586.84
2023-05-11T16:02:25.441Z,98566.47
2023-05-11T16:04:52.095Z,98551.34
2023-05-11T16:07:18.694Z,98555.41
2023-05-11T16:09:45.207Z,98560.59
2023-05-11T16:12:11.672Z,98579.25
2023-05-11T16:14:38.212Z,98582.25
2023-05-11T16:17:07.061Z,98589.59
2023-05-11T16:19:36.746Z,98579.06
2023-05-11T16:22:03.447Z,98578.22
2023-05-11T16:24:32.866Z,98579.25
2023-05-11T16:27:00.684Z,98582.72
2023-05-11T16:29:30.064Z,98589.94
2023-05-11T16:31:56.965Z,98586.53
2023-05-11T16:34:27.487Z,98590.19
2023-05-11T16:36:53.981Z,98598.94
2023-05-11T16:39:20.462Z,98602.38
2023-05-11T16:41:46.909Z,98608.66
2023-05-11T16:44:13.371Z,98609.53
2023-05-11T16:46:39.942Z,98613.03
2023-05-11T16:49:06.486Z,98605.97
2023-05-11T16:51:34.098Z,98607.78
2023-05-11T16:54:00.608Z,98613.13
2023-05-11T16:56:27.132Z,98617.34
2023-05-11T16:58:54.070Z,98625.34
2023-05-11T17:01:20.752Z,98637.63
2023-05-11T17:03:47.776Z,98640.22
2023-05-11T17:06:18.494Z,98635.78
2023-05-11T17:08:46.831Z,98633.94
2023-05-11T17:11:13.354Z,98634.69
2023-05-11T17:13:39.921Z,98637.25
2023-05-11T17:16:06.595Z,98633.72
2023-05-11T17:18:33.215Z,98623.16
2023-05-11T17:21:03.074Z,98629.53
2023-05-11T17:23:29.594Z,98637.66
2023-05-11T17:25:56.090Z,98637.56
2023-05-11T17:28:22.570Z,98642.13
2023-05-11T17:30:52.795Z,98631.34
2023-05-11T17:33:19.652Z,98635.09
2023-05-11T17:35:46.253Z,98637.84
2023-05-11T17:38:12.739Z,98641.19
2023-05-11T17:40:39.234Z,98641.13
2023-05-11T17:43:05.775Z,98643.97
2023-05-11T17:45:32.357Z,98642.25
2023-05-11T17:47:58.894Z,98643.06
2023-05-11T17:50:25.471Z,98653.88
2023-05-11T17:52:51.927Z,98654.88
2023-05-11T17:55:19.262Z,98659.47
2023-05-11T17:57:46.836Z,98678.22
2023-05-11T18:00:13.835Z,98678.25
2023-05-11T18:02:40.587Z,98669.41
2023-05-11T18:05:07.507Z,98670.25
2023-05-11T18:07:34.191Z,98671.03
2023-05-11T18:10:00.727Z,98674.56
2023-05-11T18:12:27.609Z,98671.91
2023-05-11T18:14:54.102Z,98665.59
2023-05-11T18:17:20.902Z,98657.56
2023-05-11T18:19:47.437Z,98654.97
2023-05-11T18:22:13.912Z,98653.25
2023-05-11T18:24:40.440Z,98647.00
2023-05-11T18:27:06.930Z,98643.44
2023-05-11T18:29:33.482Z,98642.50
2023-05-11T18:32:00.142Z,98643.34
2023-05-11T18:34:27.486Z,98646.09
2023-05-11T18:36:54.033Z,98659.44
2023-05-11T18:39:20.484Z,98671.84
2023-05-11T18:41:47.955Z,98678.19
2023-05-11T18:44:15.196Z,98686.31
2023-05-11T18:46:42.020Z,98688.97
2023-05-11T18:49:10.804Z,98688.97
2023-05-11T18:51:37.422Z,98694.25
2023-05-11T18:54:04.059Z,98693.41
2023-05-11T18:56:30.669Z,98695.25
2023-05-11T18:58:59.053Z,98697.91
2023-05-11T19:01:36.250Z,98695.25
2023-05-11T19:04:12.568Z,98700.56
2023-05-11T19:06:51.850Z,98706.03
2023-05-11T19:09:18.445Z,98699.94
2023-05-11T19:11:45.009Z,98708.00
2023-05-11T19:14:15.960Z,98715.06
2023-05-11T19:16:42.543Z,98711.53
2023-05-11T19:19:09.308Z,98717.69
2023-05-11T19:21:39.946Z,98729.09
2023-05-11T19:24:07.326Z,98730.91
2023-05-11T19:26:33.928Z,98735.19
2023-05-11T19:29:00.625Z,98741.31
2023-05-11T19:31:31.289Z,98742.16
2023-05-11T19:33:58.937Z,98752.91
2023-05-11T19:36:25.812Z,98746.03
2023-05-11T19:38:52.492Z,98751.47
2023-05-11T19:41:19.155Z,98742.63
2023-05-11T19:43:45.619Z,98752.38
2023-05-11T19:46:12.458Z,98754.97
2023-05-11T19:48:40.036Z,98765.50
2023-05-11T19:51:06.551Z,98763.78
2023-05-11T19:53:33.085Z,98763.13
2023-05-11T19:56:00.598Z,98758.69
2023-05-11T19:58:27.217Z,98760.59
2023-05-11T20:00:53.700Z,98766.81
2023-05-11T20:03:20.410Z,98771.22
2023-05-11T20:05:47.051Z,98768.50
2023-05-11T20:08:13.540Z,98779.09
2023-05-11T20:10:40.099Z,98779.09
2023-05-11T20:13:08.146Z,98778.28
2023-05-11T20:15:34.717Z,98778.28
2023-05-11T20:18:03.052Z,98786.34
2023-05-11T20:20:30.641Z,98785.66
2023-05-11T20:22:57.691Z,98784.88
2023-05-11T20:25:24.232Z,98782.22
2023-05-11T20:27:51.204Z,98781.31
2023-05-11T20:30:18.087Z,98784.91
2023-05-11T20:35:14.423Z,98792.97
2023-05-11T20:37:41.014Z,98794.72
2023-05-11T20:40:08.341Z,98794.00
2023-05-11T20:42:38.005Z,98803.75
2023-05-11T20:45:07.344Z,98788.75
2023-05-11T20:47:37.086Z,98799.44
2023-05-11T20:50:04.028Z,98799.56
2023-05-11T20:52:30.834Z,98791.66
2023-05-11T20:54:57.408Z,98792.47
2023-05-11T20:57:23.987Z,98781.94
2023-05-11T21:02:19.994Z,98790.84
2023-05-11T21:04:46.812Z,98794.44
2023-05-11T21:07:13.336Z,98807.69
2023-05-11T21:09:39.845Z,98801.56
2023-05-11T21:12:06.698Z,98804.19
2023-05-11T21:14:33.289Z,98807.69
2023-05-11T21:16:59.850Z,98801.34
2023-05-11T21:19:26.354Z,98802.25
2023-05-11T21:21:52.818Z,98805.75
2023-05-11T21:24:20.227Z,98804.84
2023-05-11T21:26:48.213Z,98802.19
2023-05-11T21:29:15.294Z,98811.09
2023-05-11T21:31:42.011Z,98810.16
2023-05-11T21:34:08.577Z,98811.97
2023-05-11T21:36:35.064Z,98818.25
2023-05-11T21:39:01.597Z,98828.00
2023-05-11T21:41:28.110Z,98813.84
2023-05-11T21:43:54.593Z,98822.72
2023-05-11T21:46:21.790Z,98820.97
2023-05-11T21:48:48.347Z,98823.69
2023-05-11T21:51:14.821Z,98821.06
2023-05-11T21:53:41.369Z,98815.84
2023-05-11T21:56:09.825Z,98822.94
2023-05-11T21:58:37.822Z,98826.50
2023-05-11T22:01:04.441Z,98827.44
2023-05-11T22:03:31.678Z,98832.75
2023-05-11T22:05:58.730Z,98830.97
2023-05-11T22:08:25.431Z,98838.97
2023-05-11T22:10:52.058Z,98833.69
2023-05-11T22:13:18.524Z,98831.88
2023-05-11T22:15:45.010Z,98834.56
2023-05-11T22:18:11.487Z,98833.75
2023-05-11T22:20:37.993Z,98829.31
2023-05-11T22:23:04.484Z,98826.72
2023-05-11T22:25:32.142Z,98832.91
2023-05-11T22:27:58.613Z,98839.94
2023-05-11T22:30:25.115Z,98837.25
2023-05-11T22:32:51.712Z,98834.63
2023-05-11T22:35:18.368Z,98835.53
2023-05-11T22:37:44.868Z,98835.59
2023-05-11T22:40:12.017Z,98842.75
2023-05-11T22:42:38.506Z,98838.34
2023-05-11T22:45:06.094Z,98841.81
2023-05-11T22:47:32.880Z,98843.50
2023-05-11T22:50:00.520Z,98847.88
2023-05-11T22:52:27.193Z,98841.69
2023-05-11T22:55:01.742Z,98850.50
2023-05-11T22:57:28.713Z,98844.31
2023-05-11T22:59:55.386Z,98842.59
2023-05-11T23:02:22.936Z,98851.47
2023-05-11T23:04:53.147Z,98851.44
2023-05-11T23:07:19.959Z,98841.69
2023-05-11T23:09:46.843Z,98840.81
2023-05-11T23:12:13.590Z,98840.81
2023-05-11T23:14:40.132Z,98843.47
2023-05-11T23:17:06.726Z,98835.56
2023-05-11T23:19:33.282Z,98836.47
2023-05-11T23:21:59.932Z,98834.66
2023-05-11T23:24:26.781Z,98839.09
2023-05-11T23:26:53.326Z,98842.66
2023-05-11T23:29:19.993Z,98840.09
2023-05-11T23:31:46.720Z,98847.25
2023-05-11T23:34:16.156Z,98833.03
2023-05-11T23:36:43.011Z,98835.66
2023-05-11T23:39:09.650Z,98836.53
2023-05-11T23:41:36.402Z,98840.06
2023-05-11T23:44:03.242Z,98832.97
2023-05-11T23:46:29.987Z,98829.44
2023-05-11T23:48:56.512Z,98833.84
2023-05-11T23:51:23.231Z,98827.75
2023-05-11T23:53:49.717Z,98832.16
2023-05-11T23:56:16.435Z,98824.16
2023-05-11T23:58:45.579Z,98830.31
